createdAt,value
2018-05-21T00:00:39.585Z,78.72
2018-05-21T00:01:49.412Z,78.77
2018-05-21T00:02:59.480Z,78.72
2018-05-21T00:04:09.572Z,78.92
2018-05-21T00:05:19.644Z,78.92
2018-05-21T00:06:29.463Z,79.01
2018-05-21T00:07:39.556Z,77.95
2018-05-21T00:08:49.634Z,78.15
2018-05-21T00:09:59.197Z,78.15
2018-05-21T00:11:09.287Z,78.05
2018-05-21T00:12:19.092Z,78.34
2018-05-21T00:13:28.130Z,78.34
2018-05-21T00:14:37.956Z,78.34
2018-05-21T00:15:48.045Z,78.15
2018-05-21T00:16:58.139Z,77.95
2018-05-21T00:18:08.269Z,77.95
2018-05-21T00:19:18.344Z,77.95
2018-05-21T00:20:28.431Z,79.11
2018-05-21T00:21:38.547Z,78.44
2018-05-21T00:22:48.630Z,79.21
2018-05-21T00:23:58.729Z,79.01
2018-05-21T00:25:09.052Z,79.3
2018-05-21T00:26:19.130Z,78.92
2018-05-21T00:27:29.205Z,79.21
2018-05-21T00:28:39.038Z,78.34
2018-05-21T00:29:48.854Z,79.11
2018-05-21T00:30:58.947Z,78.82
2018-05-21T00:32:09.019Z,78.15
2018-05-21T00:33:19.104Z,78.34
2018-05-21T00:34:29.171Z,77.95
2018-05-21T00:35:38.970Z,78.34
2018-05-21T00:36:49.025Z,78.34
2018-05-21T00:37:59.098Z,78.15
2018-05-21T00:39:09.240Z,78.34
2018-05-21T00:40:19.072Z,78.15
2018-05-21T00:41:29.134Z,78.3
2018-05-21T00:42:39.229Z,78.3
2018-05-21T00:43:49.318Z,78.34
2018-05-21T00:44:59.274Z,78.3
2018-05-21T00:46:09.349Z,78.25
2018-05-21T00:47:19.180Z,78.2
2018-05-21T00:48:29.322Z,78.69
2018-05-21T00:49:39.421Z,78.72
2018-05-21T00:50:49.551Z,78.34
2018-05-21T00:51:59.338Z,78.63
2018-05-21T00:53:09.420Z,78.53
2018-05-21T00:54:18.976Z,78.53
2018-05-21T00:55:29.029Z,78.63
2018-05-21T00:56:39.489Z,78.34
2018-05-21T00:57:49.574Z,78.53
2018-05-21T00:58:59.411Z,78.34
2018-05-21T01:00:09.803Z,78.53
2018-05-21T01:01:20.024Z,78.44
2018-05-21T01:02:30.125Z,78.53
2018-05-21T01:03:40.195Z,78.63
2018-05-21T01:04:50.076Z,78.53
2018-05-21T01:06:00.159Z,78.34
2018-05-21T01:07:10.266Z,78.44
2018-05-21T01:08:20.092Z,78.44
2018-05-21T01:09:29.946Z,78.3
2018-05-21T01:10:40.089Z,78.44
2018-05-21T01:11:50.158Z,78.4
2018-05-21T01:13:00.241Z,78.3
2018-05-21T01:14:10.329Z,78.34
2018-05-21T01:15:20.162Z,78.11
2018-05-21T01:16:29.975Z,78.3
2018-05-21T01:17:40.061Z,78.88
2018-05-21T01:18:50.180Z,78.97
2018-05-21T01:20:00.483Z,78.97
2018-05-21T01:21:11.278Z,78.88
2018-05-21T01:22:21.148Z,78.78
2018-05-21T01:23:31.378Z,78.88
2018-05-21T01:24:41.876Z,78.59
2018-05-21T01:25:51.693Z,78.69
2018-05-21T01:27:01.779Z,78.69
2018-05-21T01:28:11.592Z,78.78
2018-05-21T01:29:21.657Z,78.88
2018-05-21T01:30:31.755Z,78.69
2018-05-21T01:31:41.888Z,78.64
2018-05-21T01:32:51.735Z,78.74
2018-05-21T01:34:01.807Z,78.88
2018-05-21T01:35:11.876Z,78.74
2018-05-21T01:36:21.693Z,78.78
2018-05-21T01:37:31.773Z,78.88
2018-05-21T01:38:41.600Z,78.74
2018-05-21T01:39:51.678Z,78.74
2018-05-21T01:41:01.548Z,78.84
2018-05-21T01:42:11.623Z,78.84
2018-05-21T01:43:21.704Z,78.64
2018-05-21T01:44:31.854Z,78.74
2018-05-21T01:45:41.648Z,78.93
2018-05-21T01:46:51.726Z,78.84
2018-05-21T01:48:01.565Z,78.36
2018-05-21T01:49:11.713Z,78.07
2018-05-21T01:50:21.786Z,78.45
2018-05-21T01:51:31.857Z,78.27
2018-05-21T01:52:41.925Z,78.64
2018-05-21T01:53:51.474Z,78.55
2018-05-21T01:55:01.600Z,78.36
2018-05-21T01:56:11.437Z,78.27
2018-05-21T01:57:21.503Z,78.45
2018-05-21T01:58:31.589Z,78.17
2018-05-21T01:59:41.654Z,78.45
2018-05-21T02:00:51.873Z,78.45
2018-05-21T02:02:01.952Z,78.36
2018-05-21T02:03:12.021Z,78.45
2018-05-21T02:04:22.318Z,78.55
2018-05-21T02:05:32.154Z,78.27
2018-05-21T02:06:42.281Z,78.36
2018-05-21T02:07:52.411Z,78.17
2018-05-21T02:09:02.230Z,78.36
2018-05-21T02:10:12.311Z,78.17
2018-05-21T02:11:22.367Z,78.45
2018-05-21T02:12:31.668Z,78.45
2018-05-21T02:13:41.512Z,78.64
2018-05-21T02:14:51.597Z,78.27
2018-05-21T02:16:01.149Z,78.45
2018-05-21T02:17:11.230Z,78.45
2018-05-21T02:18:21.292Z,78.27
2018-05-21T02:19:31.364Z,78.45
2018-05-21T02:20:41.442Z,78.17
2018-05-21T02:21:51.544Z,78.45
2018-05-21T02:23:01.445Z,78.45
2018-05-21T02:24:11.314Z,77.92
2018-05-21T02:25:21.143Z,78.45
2018-05-21T02:26:30.965Z,78.55
2018-05-21T02:27:41.258Z,78.49
2018-05-21T02:28:51.375Z,78.45
2018-05-21T02:30:01.509Z,78.36
2018-05-21T02:31:11.637Z,78.17
2018-05-21T02:32:21.736Z,78.55
2018-05-21T02:33:31.834Z,78.27
2018-05-21T02:34:41.643Z,78.64
2018-05-21T02:35:51.768Z,78.27
2018-05-21T02:37:01.862Z,78.36
2018-05-21T02:38:11.686Z,78.17
2018-05-21T02:39:21.763Z,78.27
2018-05-21T02:40:31.864Z,78.17
2018-05-21T02:41:41.943Z,78.07
2018-05-21T02:42:51.867Z,78.07
2018-05-21T02:44:01.962Z,78.36
2018-05-21T02:45:12.027Z,78.17
2018-05-21T02:46:21.844Z,78.07
2018-05-21T02:47:31.660Z,78.36
2018-05-21T02:48:41.477Z,78.17
2018-05-21T02:49:51.035Z,78.36
2018-05-21T02:51:01.120Z,78.36
2018-05-21T02:52:11.188Z,78.17
2018-05-21T02:53:21.264Z,78.55
2018-05-21T02:54:31.329Z,78.07
2018-05-21T02:55:41.405Z,78.27
2018-05-21T02:56:51.466Z,78.07
2018-05-21T02:58:01.549Z,78.93
2018-05-21T02:59:11.627Z,78.27
2018-05-21T03:00:21.698Z,78.07
2018-05-21T03:01:31.779Z,78.27
2018-05-21T03:02:41.581Z,78.93
2018-05-21T03:34:36.313Z,73.35
2018-05-21T03:35:46.245Z,73.92
2018-05-21T03:36:56.055Z,74.88
2018-05-21T03:38:06.123Z,75.45
2018-05-21T03:39:16.268Z,76.31
2018-05-21T03:40:25.870Z,76.88
2018-05-21T03:41:35.930Z,77.08
2018-05-21T03:42:45.801Z,77.36
2018-05-21T03:43:55.871Z,77.01
2018-05-21T03:45:05.954Z,77.59
2018-05-21T03:46:16.075Z,77.69
2018-05-21T03:47:26.130Z,78.36
2018-05-21T03:48:36.197Z,78.2
2018-05-21T03:49:46.255Z,78.3
2018-05-21T03:50:56.080Z,78.3
2018-05-21T03:52:06.188Z,78.11
2018-05-21T03:53:16.323Z,78.11
2018-05-21T03:54:26.403Z,77.95
2018-05-21T03:55:36.471Z,78.14
2018-05-21T03:56:46.025Z,77.67
2018-05-21T03:57:56.161Z,77.67
2018-05-21T03:59:06.226Z,77.7
2018-05-21T04:00:16.300Z,77.9
2018-05-21T04:01:25.855Z,77.9
2018-05-21T04:02:35.656Z,77.9
2018-05-21T04:03:45.786Z,77.8
2018-05-21T04:04:55.884Z,78.09
2018-05-21T04:06:05.696Z,77.75
2018-05-21T04:07:15.788Z,77.55
2018-05-21T04:08:25.663Z,77.36
2018-05-21T04:09:35.728Z,77.36
2018-05-21T04:10:45.268Z,77.46
2018-05-21T04:11:54.998Z,77.5
2018-05-21T04:13:05.409Z,77.59
2018-05-21T04:14:15.220Z,77.4
2018-05-21T04:15:25.296Z,77.59
2018-05-21T04:16:35.379Z,77.5
2018-05-21T04:17:45.446Z,77.21
2018-05-21T04:18:55.741Z,77.44
2018-05-21T04:20:05.548Z,77.44
2018-05-21T04:21:15.364Z,77.44
2018-05-21T04:22:25.431Z,77.53
2018-05-21T04:23:35.519Z,77.34
2018-05-21T04:24:45.591Z,77.15
2018-05-21T04:25:55.682Z,77.48
2018-05-21T04:27:05.503Z,77.67
2018-05-21T04:28:15.585Z,77.48
2018-05-21T04:29:25.678Z,77.67
2018-05-21T04:30:35.508Z,77.19
2018-05-21T04:31:45.051Z,77.38
2018-05-21T04:32:55.222Z,77.19
2018-05-21T04:34:05.299Z,77.29
2018-05-21T04:35:15.115Z,77.13
2018-05-21T04:36:25.090Z,77.33
2018-05-21T04:37:35.427Z,77.33
2018-05-21T04:38:45.236Z,77.13
2018-05-21T04:39:55.303Z,77.13
2018-05-21T04:41:05.381Z,77.51
2018-05-21T04:42:15.480Z,77.51
2018-05-21T04:43:25.554Z,77.04
2018-05-21T04:44:35.155Z,77.23
2018-05-21T04:45:44.961Z,77.33
2018-05-21T04:46:55.055Z,77.08
2018-05-21T04:48:05.139Z,76.75
2018-05-21T04:49:14.967Z,77.17
2018-05-21T04:50:25.099Z,77.36
2018-05-21T04:51:34.917Z,77.56
2018-05-21T04:52:44.996Z,77.46
2018-05-21T04:53:54.819Z,77.17
2018-05-21T04:55:04.898Z,77.08
2018-05-21T04:56:14.548Z,77.11
2018-05-21T04:57:24.365Z,76.92
2018-05-21T04:58:34.525Z,77.01
2018-05-21T04:59:44.083Z,77.01
2018-05-21T05:00:53.911Z,77.11
2018-05-21T05:02:04.035Z,76.92
2018-05-21T05:03:14.107Z,76.77
2018-05-21T05:04:24.185Z,76.86
2018-05-21T05:05:33.745Z,76.96
2018-05-21T05:06:43.813Z,76.86
2018-05-21T05:07:53.882Z,76.77
2018-05-21T05:09:03.954Z,76.61
2018-05-21T05:10:14.016Z,76.52
2018-05-21T05:11:23.834Z,76.23
2018-05-21T05:12:33.897Z,76.42
2018-05-21T05:13:43.992Z,76.32
2018-05-21T05:14:54.092Z,76.52
2018-05-21T05:16:04.276Z,76.56
2018-05-21T05:17:14.373Z,76.56
2018-05-21T05:18:24.450Z,76.75
2018-05-21T05:19:34.252Z,76.17
2018-05-21T05:20:44.359Z,76.11
2018-05-21T05:21:54.436Z,76.01
2018-05-21T05:23:04.247Z,76.21
2018-05-21T05:24:14.330Z,75.76
2018-05-21T05:25:24.431Z,75.76
2018-05-21T05:26:34.394Z,75.51
2018-05-21T05:27:44.379Z,74.93
2018-05-21T05:28:54.185Z,72.99
2018-05-21T05:30:03.761Z,71.7
2018-05-21T05:31:13.576Z,72.9
2018-05-21T05:32:23.674Z,72.9
2018-05-21T05:33:33.504Z,72.9
2018-05-21T05:34:43.585Z,72.84
2018-05-21T05:35:53.684Z,72.64
2018-05-21T05:37:04.008Z,72.55
2018-05-21T05:38:14.090Z,73.01
2018-05-21T05:39:24.167Z,73.36
2018-05-21T05:40:34.235Z,73.9
2018-05-21T05:41:43.785Z,74.29
2018-05-21T05:42:53.610Z,73.8
2018-05-21T05:44:03.678Z,74.19
2018-05-21T05:45:13.505Z,74.58
2018-05-21T05:46:23.320Z,74.48
2018-05-21T05:47:33.397Z,74.58
2018-05-21T05:48:43.598Z,74.96
2018-05-21T05:49:53.821Z,75.16
2018-05-21T05:51:03.919Z,75.16
2018-05-21T05:52:13.990Z,74.87
2018-05-21T05:53:24.362Z,75.06
2018-05-21T05:54:34.098Z,75.16
2018-05-21T05:55:44.164Z,75.84
2018-05-21T05:56:54.266Z,75.54
2018-05-21T05:58:04.358Z,76.18
2018-05-21T05:59:14.430Z,76.09
2018-05-21T06:00:24.547Z,75.99
2018-05-21T06:01:34.642Z,76.47
2018-05-21T06:02:44.719Z,76.47
2018-05-21T06:03:54.544Z,76.18
2018-05-21T06:05:04.355Z,76.57
2018-05-21T06:06:14.467Z,76.09
2018-05-21T06:07:24.572Z,76.18
2018-05-21T06:08:34.386Z,75.89
2018-05-21T06:09:44.193Z,75.84
2018-05-21T06:10:54.270Z,74.77
2018-05-21T06:12:04.405Z,75.16
2018-05-21T06:13:14.557Z,74.68
2018-05-21T06:14:24.624Z,74.32
2018-05-21T06:15:34.704Z,73.78
2018-05-21T06:16:44.796Z,73.82
2018-05-21T06:17:54.929Z,74.4
2018-05-21T06:19:05.030Z,73.43
2018-05-21T06:20:14.854Z,73.24
2018-05-21T06:21:24.948Z,73.08
2018-05-21T06:22:34.506Z,73.18
2018-05-21T06:23:44.407Z,73.37
2018-05-21T06:24:54.489Z,73.79
2018-05-21T06:26:04.778Z,73.41
2018-05-21T06:27:14.859Z,73.31
2018-05-21T06:28:24.957Z,72.15
2018-05-21T06:29:35.118Z,70.8
2018-05-21T06:30:45.193Z,70.73
2018-05-21T06:31:55.262Z,70.57
2018-05-21T06:33:05.334Z,69.38
2018-05-21T06:34:15.648Z,69.32
2018-05-21T06:35:26.270Z,69.68
2018-05-21T06:36:36.645Z,69.58
2018-05-21T06:37:46.730Z,69.58
2018-05-21T06:38:57.065Z,69.78
2018-05-21T06:40:07.122Z,70.36
2018-05-21T06:41:16.988Z,70.95
2018-05-21T06:42:27.084Z,71.23
2018-05-21T06:43:37.185Z,72.27
2018-05-21T06:44:47.001Z,72.72
2018-05-21T06:45:57.087Z,72.24
2018-05-21T06:47:06.928Z,73.08
2018-05-21T06:48:17.014Z,73.46
2018-05-21T06:49:27.122Z,73.37
2018-05-21T06:50:36.678Z,73.37
2018-05-21T06:51:46.504Z,73.46
2018-05-21T06:52:56.326Z,73.46
2018-05-21T06:54:06.439Z,73.37
2018-05-21T06:55:16.521Z,73.33
2018-05-21T06:56:26.345Z,73.72
2018-05-21T06:57:36.420Z,73.52
2018-05-21T06:58:46.295Z,73.97
2018-05-21T06:59:56.484Z,73.88
2018-05-21T07:01:06.564Z,74.56
2018-05-21T07:02:16.391Z,73.84
2018-05-21T07:03:26.269Z,73.84
2018-05-21T07:04:36.359Z,74.23
2018-05-21T07:05:46.438Z,74.68
2018-05-21T07:06:56.522Z,75.26
2018-05-21T07:08:06.907Z,75.42
2018-05-21T07:09:17.024Z,75.42
2018-05-21T07:10:27.099Z,76.15
2018-05-21T07:11:37.182Z,75.87
2018-05-21T07:12:47.021Z,76.06
2018-05-21T07:13:57.127Z,76.06
2018-05-21T07:15:07.215Z,76.12
2018-05-21T07:16:17.041Z,76.02
2018-05-21T07:17:27.119Z,75.92
2018-05-21T07:18:36.942Z,76.02
2018-05-21T07:19:46.745Z,75.73
2018-05-21T07:20:56.898Z,76.12
2018-05-21T07:22:07.042Z,75.24
2018-05-21T07:23:16.863Z,74.96
2018-05-21T07:24:27.041Z,75.34
2018-05-21T07:25:37.429Z,75.34
2018-05-21T07:26:47.257Z,75.05
2018-05-21T07:27:57.128Z,75.34
2018-05-21T07:29:07.230Z,75.24
2018-05-21T07:30:17.315Z,75.24
2018-05-21T07:31:27.181Z,75.34
2018-05-21T07:32:37.430Z,74.96
2018-05-21T07:33:47.562Z,74.86
2018-05-21T07:34:57.395Z,75.15
2018-05-21T07:36:07.471Z,75.05
2018-05-21T07:37:17.312Z,74.86
2018-05-21T07:38:27.157Z,74.86
2018-05-21T07:39:37.309Z,74.9
2018-05-21T07:40:47.212Z,75.09
2018-05-21T07:41:57.296Z,75.15
2018-05-21T07:43:07.376Z,74.9
2018-05-21T07:44:17.483Z,75.19
2018-05-21T07:45:27.601Z,74.9
2018-05-21T07:46:37.161Z,74.22
2018-05-21T07:47:47.237Z,74.26
2018-05-21T07:48:57.056Z,74.26
2018-05-21T07:50:07.156Z,74.9
2018-05-21T07:51:17.089Z,75.05
2018-05-21T07:52:27.565Z,75.34
2018-05-21T07:53:37.400Z,75.24
2018-05-21T07:54:47.493Z,74.99
2018-05-21T07:55:57.312Z,75.48
2018-05-21T07:57:07.596Z,75.28
2018-05-21T07:58:17.254Z,75.09
2018-05-21T07:59:27.275Z,74.8
2018-05-21T08:00:37.381Z,74.74
2018-05-21T08:01:47.474Z,74.93
2018-05-21T08:02:57.276Z,74.54
2018-05-21T08:04:07.388Z,74.74
2018-05-21T08:05:17.200Z,75.19
2018-05-21T08:06:27.586Z,75.19
2018-05-21T08:07:37.678Z,74.9
2018-05-21T08:08:47.275Z,75.38
2018-05-21T08:09:57.373Z,74.99
2018-05-21T08:11:07.465Z,75.09
2018-05-21T08:12:17.565Z,75.13
2018-05-21T08:13:27.653Z,75.23
2018-05-21T08:14:38.003Z,75.09
2018-05-21T08:15:48.670Z,75.19
2018-05-21T08:16:58.770Z,75.32
2018-05-21T08:18:08.879Z,75.13
2018-05-21T08:19:18.716Z,75.23
2018-05-21T08:20:28.811Z,75.13
2018-05-21T08:21:38.919Z,75.32
2018-05-21T08:22:49.001Z,75.23
2018-05-21T08:23:59.087Z,75.03
2018-05-21T08:25:08.654Z,75.13
2018-05-21T08:26:18.534Z,75.51
2018-05-21T08:27:28.658Z,75.42
2018-05-21T08:28:38.760Z,75.45
2018-05-21T08:29:48.881Z,75.16
2018-05-21T08:30:58.734Z,75.13
2018-05-21T08:32:08.843Z,75.42
2018-05-21T08:33:18.952Z,75.45
2018-05-21T08:34:28.266Z,75.07
2018-05-21T08:35:38.371Z,74.97
2018-05-21T08:36:48.471Z,75.16
2018-05-21T08:37:58.561Z,75.55
2018-05-21T08:39:08.661Z,75.16
2018-05-21T08:40:18.788Z,75.26
2018-05-21T08:41:28.899Z,75.26
2018-05-21T08:42:39.123Z,75.26
2018-05-21T08:43:49.469Z,75.16
2018-05-21T08:44:59.572Z,75.16
2018-05-21T08:46:09.438Z,75.16
2018-05-21T08:47:19.527Z,75.07
2018-05-21T08:48:29.863Z,75.36
2018-05-21T08:49:40.552Z,75.16
2018-05-21T08:50:50.372Z,75.49
2018-05-21T08:52:00.471Z,75.49
2018-05-21T08:53:10.282Z,75.3
2018-05-21T08:54:20.471Z,75.4
2018-05-21T08:55:30.623Z,75.2
2018-05-21T08:56:40.703Z,75.4
2018-05-21T08:57:50.918Z,75.49
2018-05-21T08:59:01.035Z,75.2
2018-05-21T09:00:11.214Z,75.2
2018-05-21T09:01:21.359Z,75.2
2018-05-21T09:02:31.477Z,75.01
2018-05-21T09:03:41.564Z,75.59
2018-05-21T09:04:51.886Z,76.46
2018-05-21T09:06:01.721Z,75.88
2018-05-21T09:07:11.860Z,75.94
2018-05-21T09:08:21.978Z,76.04
2018-05-21T09:09:32.107Z,75.94
2018-05-21T09:10:41.932Z,75.84
2018-05-21T09:11:51.758Z,75.88
2018-05-21T09:13:01.900Z,75.84
2018-05-21T09:14:11.746Z,76.17
2018-05-21T09:15:21.577Z,76.07
2018-05-21T09:16:31.455Z,76.46
2018-05-21T09:17:41.651Z,75.49
2018-05-21T09:18:52.763Z,75.49
2018-05-21T09:20:02.860Z,75.2
2018-05-21T09:21:12.938Z,75.49
2018-05-21T09:22:22.759Z,75.4
2018-05-21T09:23:32.883Z,75.59
2018-05-21T09:24:43.038Z,75.59
2018-05-21T09:25:52.610Z,75.4
2018-05-21T09:27:02.877Z,75.59
2018-05-21T09:28:12.701Z,75.04
2018-05-21T09:29:22.561Z,75.34
2018-05-21T09:30:32.721Z,75.43
2018-05-21T09:31:42.836Z,75.43
2018-05-21T09:32:52.957Z,76.21
2018-05-21T09:34:03.072Z,75.14
2018-05-21T09:35:13.153Z,75.34
2018-05-21T09:36:22.980Z,75.43
2018-05-21T09:37:33.121Z,76.11
2018-05-21T09:38:43.222Z,76.01
2018-05-21T09:39:53.336Z,75.43
2018-05-21T09:41:03.180Z,75.43
2018-05-21T09:42:13.072Z,75.34
2018-05-21T09:43:23.165Z,75.27
2018-05-21T09:44:32.994Z,75.57
2018-05-21T09:45:42.814Z,75.47
2018-05-21T09:46:52.926Z,75.37
2018-05-21T09:48:02.817Z,75.27
2018-05-21T09:49:13.124Z,75.18
2018-05-21T09:50:23.240Z,75.67
2018-05-21T09:51:33.324Z,75.37
2018-05-21T09:52:43.421Z,75.37
2018-05-21T09:53:53.577Z,75.57
2018-05-21T09:55:03.650Z,75.57
2018-05-21T09:56:13.749Z,75.47
2018-05-21T09:57:23.577Z,75.18
2018-05-21T09:58:33.694Z,75.67
2018-05-21T09:59:43.810Z,75.37
2018-05-21T10:00:53.887Z,75.67
2018-05-21T10:02:03.983Z,75.37
2018-05-21T10:03:13.916Z,75.47
2018-05-21T10:04:24.032Z,75.67
2018-05-21T10:05:34.178Z,75.57
2018-05-21T10:06:44.285Z,75.51
2018-05-21T10:07:54.500Z,75.21
2018-05-21T10:09:04.605Z,75.31
2018-05-21T10:10:14.166Z,75.51
2018-05-21T10:11:24.342Z,75.6
2018-05-21T10:12:34.417Z,75.41
2018-05-21T10:13:44.520Z,75.41
2018-05-21T10:14:54.593Z,75.6
2018-05-21T10:16:04.170Z,75.31
2018-05-21T10:17:14.305Z,75.21
2018-05-21T10:18:24.398Z,75.51
2018-05-21T10:19:34.650Z,75.12
2018-05-21T10:20:44.838Z,75.12
2018-05-21T10:21:54.974Z,75.21
2018-05-21T10:23:05.144Z,75.7
2018-05-21T10:24:15.216Z,75.12
2018-05-21T10:25:25.056Z,75.31
2018-05-21T10:26:35.157Z,75.12
2018-05-21T10:27:45.263Z,75.21
2018-05-21T10:28:55.158Z,75.41
2018-05-21T10:30:04.986Z,75.41
2018-05-21T10:31:14.841Z,75.12
2018-05-21T10:32:24.934Z,74.76
2018-05-21T10:33:35.025Z,74.96
2018-05-21T10:34:45.109Z,75.45
2018-05-21T10:35:55.222Z,74.86
2018-05-21T10:37:05.520Z,74.86
2018-05-21T10:38:15.900Z,75.05
2018-05-21T10:39:26.006Z,75.09
2018-05-21T10:40:36.171Z,74.61
2018-05-21T10:41:46.250Z,74.32
2018-05-21T10:42:56.111Z,74.41
2018-05-21T10:44:06.216Z,74.51
2018-05-21T10:45:16.322Z,74.93
2018-05-21T10:46:26.143Z,74.65
2018-05-21T10:47:36.243Z,74.55
2018-05-21T10:48:46.341Z,73.86
2018-05-21T10:49:56.438Z,74.26
2018-05-21T10:51:06.540Z,74.35
2018-05-21T10:52:16.398Z,74.58
2018-05-21T10:53:26.492Z,75.52
2018-05-21T10:54:36.582Z,75.13
2018-05-21T10:55:46.665Z,75.23
2018-05-21T10:56:56.538Z,74.26
2018-05-21T10:58:06.771Z,74.78
2018-05-21T10:59:16.877Z,74.68
2018-05-21T11:00:27.073Z,74.49
2018-05-21T11:01:37.298Z,75.07
2018-05-21T11:02:48.106Z,74.65
2018-05-21T11:03:58.279Z,74.29
2018-05-21T11:05:08.098Z,74
2018-05-21T11:06:18.218Z,74.1
2018-05-21T11:07:28.411Z,74
2018-05-21T11:08:38.515Z,73.94
2018-05-21T11:09:48.646Z,74.52
2018-05-21T11:10:58.750Z,74.49
2018-05-21T11:12:08.609Z,74.68
2018-05-21T11:13:18.550Z,74.04
2018-05-21T11:14:28.666Z,74.72
2018-05-21T11:15:38.829Z,74.52
2018-05-21T11:16:48.401Z,73.84
2018-05-21T11:17:58.380Z,73.74
2018-05-21T11:19:08.235Z,73.97
2018-05-21T11:20:18.324Z,73.43
2018-05-21T11:21:28.418Z,73.85
2018-05-21T11:22:38.512Z,72.74
2018-05-21T11:23:48.590Z,72.62
2018-05-21T11:24:58.686Z,72.66
2018-05-21T11:26:08.800Z,72.95
2018-05-21T11:27:18.908Z,72.85
2018-05-21T11:28:28.482Z,72.85
2018-05-21T11:29:38.340Z,72.85
2018-05-21T11:30:48.501Z,72.95
2018-05-21T11:31:58.716Z,72.72
2018-05-21T11:33:09.259Z,72.95
2018-05-21T11:34:19.364Z,72.98
2018-05-21T11:35:29.192Z,72.88
2018-05-21T11:36:39.292Z,72.69
2018-05-21T11:37:49.402Z,72.98
2018-05-21T11:38:59.273Z,72.78
2018-05-21T11:40:09.388Z,73.08
2018-05-21T11:41:18.706Z,72.98
2018-05-21T11:42:28.801Z,73.76
2018-05-21T11:43:38.887Z,73.44
2018-05-21T11:44:48.977Z,73.73
2018-05-21T11:45:59.062Z,74.41
2018-05-21T11:47:09.188Z,74.77
2018-05-21T11:48:19.037Z,74.73
2018-05-21T11:49:28.864Z,75.18
2018-05-21T11:50:39.081Z,75.34
2018-05-21T11:51:49.475Z,75.69
2018-05-21T11:52:59.587Z,75.79
2018-05-21T11:54:09.730Z,75.89
2018-05-21T11:55:19.871Z,75.4
2018-05-21T11:56:29.980Z,75.2
2018-05-21T11:57:40.096Z,75.2
2018-05-21T11:58:50.204Z,75.1
2018-05-21T12:00:00.304Z,74.72
2018-05-21T12:01:10.142Z,74.62
2018-05-21T12:02:20.248Z,74.91
2018-05-21T12:03:30.337Z,74.33
2018-05-21T12:04:40.462Z,74.04
2018-05-21T12:05:50.285Z,74.04
2018-05-21T12:07:00.129Z,74.23
2018-05-21T12:08:10.023Z,74.07
2018-05-21T12:09:20.138Z,74.27
2018-05-21T12:10:30.238Z,73.91
2018-05-21T12:11:40.340Z,73.75
2018-05-21T12:12:50.215Z,73.66
2018-05-21T12:14:00.303Z,73.56
2018-05-21T12:15:10.133Z,73.36
2018-05-21T12:16:20.255Z,73.66
2018-05-21T12:17:30.367Z,73.36
2018-05-21T12:18:40.464Z,73.01
2018-05-21T12:19:50.283Z,72.62
2018-05-21T12:21:00.377Z,72.72
2018-05-21T12:22:10.483Z,73.14
2018-05-21T12:23:20.662Z,72.56
2018-05-21T12:24:30.770Z,72.91
2018-05-21T12:25:40.856Z,72.13
2018-05-21T12:26:50.681Z,72
2018-05-21T12:28:00.690Z,71.65
2018-05-21T12:29:10.803Z,71.98
2018-05-21T12:30:20.916Z,72.43
2018-05-21T12:31:31.017Z,72.53
2018-05-21T12:32:41.125Z,72.92
2018-05-21T12:33:51.223Z,72.69
2018-05-21T12:35:01.302Z,72.98
2018-05-21T12:36:11.409Z,73.08
2018-05-21T12:37:21.274Z,72.69
2018-05-21T12:38:31.412Z,73.08
2018-05-21T12:39:41.590Z,73.08
2018-05-21T12:49:13.212Z,72.88
2018-05-21T12:50:23.330Z,72.78
2018-05-21T12:51:33.422Z,72.78
2018-05-21T12:52:43.518Z,73.34
2018-05-21T12:53:53.346Z,73.05
2018-05-21T12:55:03.432Z,72.88
2018-05-21T12:56:13.279Z,72.49
2018-05-21T12:57:23.391Z,72.24
2018-05-21T12:58:33.247Z,71.69
2018-05-21T12:59:43.354Z,71.62
2018-05-21T13:00:53.506Z,71.72
2018-05-21T13:02:03.346Z,72.11
2018-05-21T13:03:13.475Z,71.91
2018-05-21T13:04:23.583Z,72.11
2018-05-21T13:05:33.693Z,72.7
2018-05-21T13:06:43.843Z,72.86
2018-05-21T13:07:53.943Z,73.41
2018-05-21T13:09:04.039Z,73.6
2018-05-21T13:10:14.146Z,73.96
2018-05-21T13:11:24.248Z,74.02
2018-05-21T13:12:34.393Z,74.41
2018-05-21T13:13:44.217Z,73.66
2018-05-21T13:14:54.059Z,73.73
2018-05-21T13:16:04.187Z,73.83
2018-05-21T13:17:14.296Z,74.32
2018-05-21T13:18:24.122Z,74.32
2018-05-21T13:19:33.965Z,74.22
2018-05-21T13:20:43.800Z,74.32
2018-05-21T13:21:53.984Z,74.28
2018-05-21T13:23:04.098Z,74.57
2018-05-21T13:24:14.588Z,74.57
2018-05-21T13:25:24.798Z,74.18
2018-05-21T13:26:34.909Z,73.6
2018-05-21T13:27:44.997Z,73.63
2018-05-21T13:28:55.103Z,72.95
2018-05-21T13:30:05.200Z,73.47
2018-05-21T13:31:15.298Z,73.08
2018-05-21T13:32:25.376Z,73.7
2018-05-21T13:33:35.209Z,73.31
2018-05-21T13:34:45.361Z,72.72
2018-05-21T13:35:55.554Z,72.96
2018-05-21T13:37:05.670Z,72.96
2018-05-21T13:38:15.796Z,73.15
2018-05-21T13:39:25.895Z,73.35
2018-05-21T13:40:35.460Z,73.8
2018-05-21T13:41:45.582Z,74.38
2018-05-21T13:42:55.683Z,74.25
2018-05-21T13:44:05.268Z,74.71
2018-05-21T13:45:15.384Z,74.64
2018-05-21T13:46:25.501Z,74.61
2018-05-21T13:47:35.344Z,74.22
2018-05-21T13:48:45.442Z,74.71
2018-05-21T13:49:55.559Z,74.02
2018-05-21T13:51:05.412Z,74.96
2018-05-21T13:52:14.998Z,74.93
2018-05-21T13:53:25.659Z,75.12
2018-05-21T13:54:35.516Z,74.93
2018-05-21T13:55:45.633Z,74.83
2018-05-21T13:56:55.741Z,75.12
2018-05-21T13:58:05.851Z,74.73
2018-05-21T13:59:15.995Z,74.63
2018-05-21T14:00:25.809Z,74.63
2018-05-21T14:01:35.927Z,74.15
2018-05-21T14:02:45.772Z,74.24
2018-05-21T14:03:55.862Z,74.34
2018-05-21T14:05:05.968Z,74.54
2018-05-21T14:06:15.633Z,74.73
2018-05-21T14:07:25.459Z,74.93
2018-05-21T14:08:35.287Z,74.05
2018-05-21T14:09:45.394Z,74.38
2018-05-21T14:10:55.546Z,73.89
2018-05-21T14:12:05.647Z,73.89
2018-05-21T14:13:15.748Z,73.44
2018-05-21T14:14:25.831Z,73.63
2018-05-21T14:15:35.643Z,73.63
2018-05-21T14:16:45.751Z,74.12
2018-05-21T14:17:55.847Z,73.93
2018-05-21T14:19:05.949Z,73.89
2018-05-21T14:20:16.041Z,74.57
2018-05-21T14:21:26.130Z,74.48
2018-05-21T14:22:36.462Z,73.73
2018-05-21T14:23:46.584Z,73.93
2018-05-21T14:24:56.898Z,73.83
2018-05-21T14:26:07.142Z,74.12
2018-05-21T14:27:17.263Z,73.73
2018-05-21T14:28:27.413Z,73.47
2018-05-21T14:29:37.669Z,73.86
2018-05-21T14:30:48.054Z,73.66
2018-05-21T14:31:58.129Z,74.35
2018-05-21T14:33:08.325Z,74.35
2018-05-21T14:34:18.877Z,74.9
2018-05-21T14:35:28.967Z,74.74
2018-05-21T14:36:39.075Z,74.32
2018-05-21T14:37:48.922Z,74.71
2018-05-21T14:38:58.752Z,74.22
2018-05-21T14:40:08.853Z,74.9
2018-05-21T14:41:18.960Z,74.87
2018-05-21T14:42:28.789Z,74.67
2018-05-21T14:43:38.905Z,74.77
2018-05-21T14:44:48.742Z,74.77
2018-05-21T14:45:59.030Z,74.77
2018-05-21T14:47:09.186Z,74.77
2018-05-21T14:48:19.339Z,75.12
2018-05-21T14:49:29.789Z,75.8
2018-05-21T14:50:39.609Z,75.37
2018-05-21T14:51:49.439Z,75.43
2018-05-21T14:52:59.533Z,75.63
2018-05-21T14:54:09.370Z,75.34
2018-05-21T14:55:19.195Z,75.53
2018-05-21T14:56:29.318Z,75.3
2018-05-21T14:57:39.163Z,75.24
2018-05-21T14:58:48.980Z,74.85
2018-05-21T14:59:59.087Z,74.46
2018-05-21T15:01:09.182Z,74.66
2018-05-21T15:02:19.004Z,74.85
2018-05-21T15:03:29.162Z,74.85
2018-05-21T15:04:39.261Z,74.85
2018-05-21T15:05:49.342Z,74.76
2018-05-21T15:06:59.180Z,74.66
2018-05-21T15:08:09.274Z,74.95
2018-05-21T15:09:19.375Z,74.76
2018-05-21T15:10:29.476Z,74.76
2018-05-21T15:11:39.564Z,74.66
2018-05-21T15:12:49.677Z,74.66
2018-05-21T15:13:59.758Z,74.76
2018-05-21T15:15:09.582Z,75.1
2018-05-21T15:16:19.667Z,75.2
2018-05-21T15:17:29.749Z,75.2
2018-05-21T15:18:39.843Z,75.3
2018-05-21T15:19:49.940Z,75.01
2018-05-21T15:21:00.040Z,75.59
2018-05-21T15:22:10.198Z,75.26
2018-05-21T15:23:20.200Z,75.75
2018-05-21T15:24:30.018Z,75.85
2018-05-21T15:25:40.145Z,75.65
2018-05-21T15:26:50.308Z,75.46
2018-05-21T15:28:00.131Z,75.42
2018-05-21T15:29:10.232Z,76.01
2018-05-21T15:30:20.318Z,75.62
2018-05-21T15:31:30.156Z,75.23
2018-05-21T15:32:40.316Z,75.62
2018-05-21T15:33:49.878Z,75.78
2018-05-21T15:34:59.969Z,75.58
2018-05-21T15:36:09.914Z,76.45
2018-05-21T15:37:19.785Z,76.35
2018-05-21T15:38:29.925Z,76.17
2018-05-21T15:39:40.022Z,76.35
2018-05-21T15:40:50.110Z,76.35
2018-05-21T15:41:59.942Z,76.45
2018-05-21T15:43:10.035Z,75.68
2018-05-21T15:44:20.161Z,75.58